Time;durP1;ratioP1;P1;durP2;ratioP2;P2;SDS_P1;SDS_P2;PMS_P1;PMS_P2;Temp;Humidity;BMP_temperature;BMP_pressure;BME280_temperature;BME280_humidity;BME280_pressure;Samples;Min_cycle;Max_cycle;Signal;HPM_P1;HPM_P2
2021/04/08 00:00:07;;;;;;;6.83;1.13;;;1.90;96.90;;;;;;5067959;28;20052;-78
2021/04/08 00:02:33;;;;;;;7.10;1.27;;;1.80;96.90;;;;;;5083231;28;20482;-78
2021/04/08 00:05:00;;;;;;;9.37;1.10;;;1.70;96.90;;;;;;5085095;28;20533;-78
2021/04/08 00:07:27;;;;;;;8.80;0.60;;;1.70;97.00;;;;;;5067651;28;20043;-77
2021/04/08 00:09:53;;;;;;;10.07;0.90;;;1.70;97.00;;;;;;5082958;28;20047;-77
2021/04/08 00:12:20;;;;;;;13.60;1.13;;;1.60;97.00;;;;;;5081954;28;20044;-76
2021/04/08 00:14:46;;;;;;;9.40;0.70;;;1.60;97.00;;;;;;5083758;28;20495;-75
2021/04/08 00:17:13;;;;;;;7.43;0.70;;;1.60;97.10;;;;;;5085343;28;20929;-76
2021/04/08 00:19:39;;;;;;;8.73;0.90;;;1.60;97.10;;;;;;5065431;28;20059;-76
2021/04/08 00:22:06;;;;;;;12.27;0.90;;;1.60;97.00;;;;;;5064959;28;20044;-76
2021/04/08 00:24:35;;;;;;;7.47;1.00;;;1.60;97.00;;;;;;5066555;28;20524;-75
2021/04/08 00:27:02;;;;;;;13.93;1.90;;;1.60;97.10;;;;;;5054640;28;20048;-75
2021/04/08 00:29:28;;;;;;;8.83;0.90;;;1.50;97.00;;;;;;5049204;28;20039;-75
2021/04/08 00:31:55;;;;;;;10.73;0.67;;;1.50;97.10;;;;;;5082918;28;20593;-76
2021/04/08 00:34:21;;;;;;;8.57;1.20;;;1.50;97.10;;;;;;5084316;28;20039;-77
2021/04/08 00:36:51;;;;;;;10.63;0.87;;;1.50;97.10;;;;;;5067727;28;20052;-76
2021/04/08 00:39:17;;;;;;;6.47;0.60;;;1.50;97.20;;;;;;5085172;28;20067;-78
2021/04/08 00:41:44;;;;;;;5.73;0.53;;;1.40;97.20;;;;;;5065660;28;21246;-77
2021/04/08 00:44:10;;;;;;;8.47;0.77;;;1.40;97.20;;;;;;5085320;28;20040;-77
2021/04/08 00:46:37;;;;;;;12.97;1.10;;;1.40;97.20;;;;;;5050623;28;20600;-76
2021/04/08 00:49:04;;;;;;;8.03;0.60;;;1.40;97.30;;;;;;5066469;28;20036;-76
2021/04/08 00:51:30;;;;;;;9.03;0.80;;;1.40;97.30;;;;;;5049665;28;20052;-76
2021/04/08 00:53:57;;;;;;;7.33;0.60;;;1.40;97.30;;;;;;5081318;28;20044;-77
2021/04/08 00:56:24;;;;;;;7.47;0.60;;;1.40;97.30;;;;;;5033733;28;20042;-77
2021/04/08 00:58:51;;;;;;;3.87;0.50;;;1.40;97.30;;;;;;5066874;28;20040;-77
2021/04/08 01:01:20;;;;;;;8.30;0.60;;;1.30;97.30;;;;;;5065792;28;20043;-77
2021/04/08 01:03:47;;;;;;;9.70;2.20;;;1.30;97.30;;;;;;5064613;28;20960;-77
2021/04/08 01:06:13;;;;;;;9.13;0.90;;;1.30;97.30;;;;;;5066754;28;20557;-77
2021/04/08 01:08:40;;;;;;;6.67;0.67;;;1.30;97.30;;;;;;5084250;28;20048;-75
2021/04/08 01:11:06;;;;;;;9.63;0.80;;;1.20;97.30;;;;;;5050428;28;20043;-76
2021/04/08 01:13:36;;;;;;;8.70;1.13;;;1.20;97.40;;;;;;5081811;28;20040;-76
2021/04/08 01:16:10;;;;;;;10.25;1.08;;;1.20;97.40;;;;;;5050407;28;20039;-76
2021/04/08 01:19:03;;;;;;;6.67;0.60;;;1.20;97.40;;;;;;5082803;28;20826;-75
2021/04/08 01:21:41;;;;;;;6.07;0.60;;;1.20;97.40;;;;;;5067396;28;20044;-75
2021/04/08 01:24:26;;;;;;;6.03;0.50;;;1.20;97.40;;;;;;5081980;28;20051;-77
2021/04/08 01:27:14;;;;;;;8.23;0.93;;;1.10;97.50;;;;;;5066821;28;20024;-77
2021/04/08 01:30:22;;;;;;;10.60;0.63;;;1.10;97.50;;;;;;5084651;28;20040;-77
2021/04/08 01:32:54;;;;;;;9.53;0.93;;;1.10;97.50;;;;;;5069319;28;20059;-77
2021/04/08 01:35:25;;;;;;;8.80;0.80;;;1.10;97.50;;;;;;5087058;28;20396;-78
2021/04/08 01:38:10;;;;;;;7.23;0.90;;;1.10;97.60;;;;;;5090242;28;20032;-77
2021/04/08 01:40:38;;;;;;;7.23;0.67;;;1.10;97.60;;;;;;5056578;28;20047;-77
2021/04/08 01:43:08;;;;;;;9.07;0.60;;;1.10;97.60;;;;;;5085851;28;20051;-75
2021/04/08 01:45:35;;;;;;;7.73;0.60;;;1.00;97.60;;;;;;5068701;28;20405;-77
2021/04/08 01:48:05;;;;;;;7.50;0.60;;;1.00;97.60;;;;;;5077497;28;20047;-75
2021/04/08 01:50:33;;;;;;;10.03;0.80;;;1.00;97.60;;;;;;5053535;28;20031;-77
2021/04/08 01:53:02;;;;;;;8.87;0.70;;;1.00;97.70;;;;;;5079901;28;20047;-75
2021/04/08 01:55:31;;;;;;;7.53;0.70;;;1.00;97.70;;;;;;5083737;28;20035;-75
2021/04/08 01:58:00;;;;;;;9.43;1.30;;;1.10;97.80;;;;;;5065289;28;20032;-75
2021/04/08 02:00:27;;;;;;;9.73;0.83;;;1.20;97.80;;;;;;5083449;28;20068;-76
2021/04/08 02:02:56;;;;;;;6.13;1.00;;;1.30;97.80;;;;;;5062878;28;20052;-76
2021/04/08 02:05:25;;;;;;;8.80;1.07;;;1.40;97.70;;;;;;5062923;28;20066;-76
2021/04/08 02:07:56;;;;;;;5.83;0.80;;;1.50;98.00;;;;;;5063352;28;20371;-76
2021/04/08 02:10:24;;;;;;;5.53;0.60;;;1.60;97.70;;;;;;5080857;28;20040;-75
2021/04/08 02:12:52;;;;;;;5.43;0.53;;;1.60;97.60;;;;;;5069305;28;21568;-77
2021/04/08 02:15:21;;;;;;;6.93;0.93;;;1.70;97.60;;;;;;5081610;28;20048;-78
2021/04/08 02:17:55;;;;;;;8.20;0.60;;;1.80;97.60;;;;;;5064905;28;20032;-77
2021/04/08 02:20:25;;;;;;;5.50;0.60;;;1.80;97.50;;;;;;5065130;28;20048;-77
2021/04/08 02:22:54;;;;;;;7.77;0.80;;;1.90;97.50;;;;;;5080881;28;20047;-77
2021/04/08 02:25:23;;;;;;;10.43;1.00;;;1.90;97.50;;;;;;5083424;28;20055;-77
2021/04/08 02:27:51;;;;;;;8.80;1.00;;;2.00;97.50;;;;;;5082659;28;20048;-77
2021/04/08 02:30:20;;;;;;;2.63;0.50;;;2.10;97.50;;;;;;5065659;28;20028;-78
2021/04/08 02:32:47;;;;;;;6.83;0.60;;;2.10;97.40;;;;;;5066418;28;20040;-77
2021/04/08 02:35:16;;;;;;;4.87;0.43;;;2.20;97.30;;;;;;5082040;28;20052;-77
2021/04/08 02:37:49;;;;;;;6.07;0.67;;;2.20;97.20;;;;;;5048613;28;20414;-77
2021/04/08 02:40:19;;;;;;;8.33;1.00;;;2.20;97.20;;;;;;5081155;28;20050;-77
2021/04/08 02:42:46;;;;;;;8.83;0.60;;;2.20;97.20;;;;;;5080959;28;20040;-79
2021/04/08 02:45:13;;;;;;;6.97;0.60;;;2.30;97.10;;;;;;5064654;28;20051;-77
2021/04/08 02:47:39;;;;;;;5.53;0.67;;;2.30;97.10;;;;;;5064951;28;20039;-77
2021/04/08 02:50:07;;;;;;;10.03;0.60;;;2.30;97.10;;;;;;5084391;28;20036;-77
2021/04/08 02:52:49;;;;;;;8.83;1.43;;;2.30;97.00;;;;;;5080161;28;20048;-77
2021/04/08 02:55:26;;;;;;;3.83;0.50;;;2.30;96.90;;;;;;5063306;28;20051;-77
2021/04/08 02:58:01;;;;;;;5.73;0.50;;;2.40;96.90;;;;;;5081944;28;20040;-77
2021/04/08 03:00:31;;;;;;;5.70;0.57;;;2.30;96.90;;;;;;5081997;28;20035;-77
2021/04/08 03:03:03;;;;;;;7.23;0.50;;;2.40;96.90;;;;;;5078465;28;20055;-77
2021/04/08 03:05:33;;;;;;;4.40;0.43;;;2.40;96.90;;;;;;5079073;28;20063;-76
2021/04/08 03:08:04;;;;;;;7.13;0.40;;;2.40;96.90;;;;;;5081842;28;20040;-78
2021/04/08 03:10:32;;;;;;;4.37;0.50;;;2.40;96.90;;;;;;5081445;28;20039;-77
2021/04/08 03:13:01;;;;;;;9.83;0.63;;;2.40;96.80;;;;;;5061974;28;20039;-77
2021/04/08 03:15:34;;;;;;;2.87;0.50;;;2.40;96.80;;;;;;5081900;28;20040;-77
2021/04/08 03:18:03;;;;;;;2.30;0.40;;;2.30;96.80;;;;;;5082336;28;20040;-77
2021/04/08 03:20:31;;;;;;;6.73;0.60;;;2.30;96.80;;;;;;5082509;28;20043;-77
2021/04/08 03:23:01;;;;;;;7.17;0.83;;;2.30;96.90;;;;;;5079952;28;20052;-77
2021/04/08 03:25:29;;;;;;;10.50;2.57;;;2.40;96.90;;;;;;5086514;28;20040;-77
2021/04/08 03:27:57;;;;;;;4.13;0.70;;;2.40;96.90;;;;;;5068533;28;20503;-75
2021/04/08 03:30:25;;;;;;;9.37;0.60;;;2.40;96.90;;;;;;5085449;28;20482;-75
2021/04/08 03:32:55;;;;;;;2.77;0.40;;;2.40;96.90;;;;;;5064994;28;20048;-75
2021/04/08 03:35:23;;;;;;;6.57;0.50;;;2.40;96.90;;;;;;5086617;28;20036;-75
2021/04/08 03:37:50;;;;;;;5.60;0.50;;;2.40;96.90;;;;;;5085584;28;20046;-75
2021/04/08 03:40:17;;;;;;;3.23;0.40;;;2.40;96.90;;;;;;5085191;28;20063;-75
2021/04/08 03:42:45;;;;;;;6.23;0.60;;;2.40;96.90;;;;;;5048586;28;20048;-76
2021/04/08 03:45:12;;;;;;;4.70;0.40;;;2.50;96.90;;;;;;5086398;28;20043;-77
2021/04/08 03:47:43;;;;;;;7.53;0.63;;;2.50;96.90;;;;;;5067302;28;20059;-78
2021/04/08 03:50:11;;;;;;;5.83;0.60;;;2.60;96.90;;;;;;5086836;28;20032;-78
2021/04/08 03:52:39;;;;;;;10.30;1.10;;;2.60;96.90;;;;;;5065539;28;20118;-78
2021/04/08 03:55:09;;;;;;;4.77;0.50;;;2.60;96.90;;;;;;5068134;28;20044;-77
2021/04/08 04:07:56;;;;;;;5.70;0.40;;;2.70;96.80;;;;;;5207108;24;20551;-76
2021/04/08 04:10:22;;;;;;;3.30;0.40;;;2.70;96.80;;;;;;4820949;29;20061;-75
2021/04/08 04:12:51;;;;;;;4.77;0.27;;;2.70;96.70;;;;;;4792328;29;20055;-75
2021/04/08 04:15:19;;;;;;;6.27;0.50;;;2.70;97.00;;;;;;4824013;29;20045;-75
2021/04/08 04:17:46;;;;;;;5.70;0.50;;;2.80;96.80;;;;;;4823861;29;20421;-75
2021/04/08 04:20:15;;;;;;;6.77;0.50;;;2.80;96.80;;;;;;4809193;29;20058;-75
2021/04/08 04:22:42;;;;;;;7.33;0.60;;;2.80;96.80;;;;;;4822801;29;20046;-75
2021/04/08 04:25:13;;;;;;;8.87;0.60;;;2.80;96.80;;;;;;4805474;29;20489;-75
2021/04/08 04:27:40;;;;;;;6.60;0.60;;;2.80;96.80;;;;;;4819811;29;20061;-75
2021/04/08 04:30:08;;;;;;;4.97;0.60;;;2.80;96.80;;;;;;4819719;29;20066;-75
2021/04/08 04:32:35;;;;;;;5.67;0.70;;;2.80;96.80;;;;;;4817654;29;20502;-75
2021/04/08 04:35:02;;;;;;;3.93;0.60;;;2.80;96.80;;;;;;4819825;29;20054;-75
2021/04/08 04:37:30;;;;;;;5.67;0.70;;;2.80;96.80;;;;;;4821220;29;20052;-75
2021/04/08 04:39:57;;;;;;;4.70;0.50;;;2.80;96.80;;;;;;4820484;29;20073;-75
2021/04/08 04:42:23;;;;;;;6.43;0.73;;;2.80;96.90;;;;;;4778993;29;20101;-75
2021/04/08 04:44:50;;;;;;;8.10;1.10;;;2.90;96.90;;;;;;4780665;29;20480;-75
2021/04/08 04:47:17;;;;;;;4.63;0.80;;;2.80;96.80;;;;;;4821093;29;20516;-76
2021/04/08 04:49:47;;;;;;;4.90;1.00;;;2.80;96.90;;;;;;4817876;29;20050;-75
2021/04/08 04:52:13;;;;;;;5.17;0.80;;;2.80;96.90;;;;;;4819269;29;20035;-75
2021/04/08 04:54:40;;;;;;;5.37;0.90;;;2.90;96.90;;;;;;4807694;29;20073;-75
2021/04/08 04:57:07;;;;;;;2.70;0.50;;;2.90;96.90;;;;;;4825996;29;20394;-75
2021/04/08 04:59:33;;;;;;;5.63;0.70;;;2.90;96.90;;;;;;4789168;29;20069;-75
2021/04/08 05:02:00;;;;;;;4.03;0.60;;;2.90;96.90;;;;;;4802381;29;20071;-75
2021/04/08 05:04:26;;;;;;;3.37;0.70;;;2.90;96.90;;;;;;4818800;29;20655;-75
2021/04/08 05:06:53;;;;;;;5.77;1.10;;;2.90;96.90;;;;;;4818712;29;20140;-75
2021/04/08 05:09:20;;;;;;;4.50;0.57;;;2.90;96.90;;;;;;4812825;29;20050;-75
2021/04/08 05:11:46;;;;;;;3.53;0.73;;;2.90;96.90;;;;;;4812078;29;20494;-76
2021/04/08 05:14:13;;;;;;;4.87;0.87;;;2.90;96.90;;;;;;4815237;29;20506;-75
2021/04/08 05:16:39;;;;;;;5.03;0.80;;;2.90;96.90;;;;;;4798368;29;20102;-75
2021/04/08 05:19:06;;;;;;;4.83;0.63;;;3.00;96.90;;;;;;4783086;29;20061;-75
2021/04/08 05:21:32;;;;;;;2.97;0.60;;;3.00;96.90;;;;;;4798333;29;20046;-75
2021/04/08 05:23:59;;;;;;;6.17;0.93;;;3.00;96.90;;;;;;4813043;29;20046;-75
2021/04/08 05:26:28;;;;;;;3.80;0.70;;;3.00;96.90;;;;;;4798005;29;20546;-76
2021/04/08 05:28:55;;;;;;;5.90;0.80;;;3.10;97.20;;;;;;4797664;29;20062;-75
2021/04/08 05:31:22;;;;;;;7.20;0.93;;;3.10;96.90;;;;;;4764935;29;20054;-76
2021/04/08 05:33:49;;;;;;;3.23;0.53;;;3.10;96.90;;;;;;4785236;29;20053;-75
2021/04/08 05:36:16;;;;;;;4.23;0.80;;;3.10;96.90;;;;;;4813222;29;20058;-75
2021/04/08 05:38:42;;;;;;;5.73;1.00;;;3.10;96.80;;;;;;4796326;29;20414;-75
2021/04/08 05:41:09;;;;;;;9.43;0.93;;;3.20;96.90;;;;;;4813615;29;20046;-75
2021/04/08 05:43:37;;;;;;;6.27;0.77;;;3.20;96.90;;;;;;4791025;29;20083;-75
2021/04/08 05:46:06;;;;;;;6.50;1.10;;;3.20;97.20;;;;;;4795250;29;20057;-75
2021/04/08 05:48:33;;;;;;;4.47;1.07;;;3.30;96.90;;;;;;4813961;29;20054;-75
2021/04/08 05:50:59;;;;;;;8.10;1.33;;;3.30;96.90;;;;;;4773769;29;20065;-75
2021/04/08 05:53:29;;;;;;;5.37;0.93;;;3.30;96.90;;;;;;4781207;29;20042;-76
2021/04/08 05:55:56;;;;;;;8.77;1.93;;;3.40;96.80;;;;;;4818771;29;20046;-75
2021/04/08 05:58:23;;;;;;;8.03;2.17;;;3.40;96.80;;;;;;4798045;29;20054;-76
2021/04/08 06:00:56;;;;;;;8.65;2.20;;;3.40;96.80;;;;;;4815776;29;20153;-76
2021/04/08 06:03:23;;;;;;;6.83;2.70;;;3.40;96.80;;;;;;4770243;29;20046;-74
2021/04/08 06:05:50;;;;;;;9.47;2.60;;;3.50;96.80;;;;;;4814971;29;20519;-75
2021/04/08 06:08:19;;;;;;;6.83;2.53;;;3.50;96.80;;;;;;4812783;29;20065;-75
2021/04/08 06:10:46;;;;;;;9.77;3.17;;;3.60;96.80;;;;;;4773154;29;20074;-75
2021/04/08 06:13:13;;;;;;;7.27;2.93;;;3.60;96.70;;;;;;4809400;29;20054;-75
2021/04/08 06:15:40;;;;;;;10.47;3.37;;;3.60;96.60;;;;;;4783818;29;20067;-75
2021/04/08 06:18:07;;;;;;;8.70;3.20;;;3.70;96.60;;;;;;4812032;29;20046;-75
2021/04/08 06:20:34;;;;;;;12.67;3.60;;;3.70;96.60;;;;;;4799118;29;20062;-75
2021/04/08 06:23:00;;;;;;;11.10;3.93;;;3.80;96.60;;;;;;4811957;29;20046;-76
2021/04/08 06:25:27;;;;;;;10.23;3.80;;;3.80;96.50;;;;;;4780115;29;20426;-75
2021/04/08 06:27:53;;;;;;;6.80;3.17;;;3.90;96.60;;;;;;4798421;29;20061;-76
2021/04/08 06:30:20;;;;;;;9.03;4.00;;;4.00;96.50;;;;;;4813760;29;20054;-75
2021/04/08 06:32:47;;;;;;;12.43;4.77;;;4.00;96.50;;;;;;4793948;29;20437;-75
2021/04/08 06:35:14;;;;;;;10.60;3.47;;;4.10;96.40;;;;;;4788343;29;20497;-75
2021/04/08 06:37:41;;;;;;;10.80;4.77;;;4.10;96.30;;;;;;4779938;29;20046;-75
2021/04/08 06:40:08;;;;;;;15.50;4.20;;;4.10;96.20;;;;;;4797326;29;20069;-77
2021/04/08 06:42:35;;;;;;;7.97;3.50;;;4.10;96.20;;;;;;4810300;29;20050;-75
2021/04/08 06:45:05;;;;;;;14.90;4.90;;;4.10;96.20;;;;;;4799885;29;20498;-75
2021/04/08 06:48:00;;;;;;;12.37;3.57;;;4.10;96.20;;;;;;4812511;29;20414;-75
2021/04/08 06:50:39;;;;;;;11.80;3.23;;;4.10;96.10;;;;;;4810528;29;20050;-75
2021/04/08 06:53:07;;;;;;;10.03;3.60;;;4.10;96.00;;;;;;4809036;29;20494;-75
2021/04/08 06:55:35;;;;;;;9.83;4.23;;;4.10;96.10;;;;;;4811180;29;20050;-76
2021/04/08 06:58:05;;;;;;;10.03;3.47;;;4.10;96.20;;;;;;4795856;29;20635;-75
2021/04/08 07:00:32;;;;;;;10.80;3.77;;;4.10;96.20;;;;;;4789035;29;20555;-75
2021/04/08 07:03:01;;;;;;;8.27;3.40;;;4.20;95.90;;;;;;4798593;29;20508;-75
2021/04/08 07:05:28;;;;;;;10.10;2.90;;;4.20;95.90;;;;;;4805040;29;20051;-75
2021/04/08 07:07:54;;;;;;;7.30;3.50;;;4.30;95.80;;;;;;4783455;29;20059;-76
2021/04/08 07:10:21;;;;;;;9.03;2.60;;;4.40;95.70;;;;;;4786633;29;20042;-76
2021/04/08 07:12:52;;;;;;;8.67;3.00;;;4.60;95.80;;;;;;4798271;29;20067;-75
2021/04/08 07:15:19;;;;;;;7.53;2.77;;;4.90;95.70;;;;;;4810873;29;20066;-75
2021/04/08 07:17:46;;;;;;;5.07;2.63;;;5.30;95.70;;;;;;4793813;29;20042;-75
2021/04/08 07:20:13;;;;;;;14.40;2.87;;;5.60;95.00;;;;;;4800268;29;20065;-75
2021/04/08 07:22:40;;;;;;;6.00;2.67;;;5.90;94.40;;;;;;4811851;29;20057;-75
2021/04/08 07:25:20;;;;;;;9.20;2.50;;;6.20;93.90;;;;;;4767402;29;20062;-75
2021/04/08 07:27:47;;;;;;;8.43;2.53;;;6.30;93.20;;;;;;4806107;29;20061;-75
2021/04/08 07:30:17;;;;;;;6.13;2.03;;;6.40;92.60;;;;;;4781244;29;20038;-75
2021/04/08 07:32:56;;;;;;;5.37;1.93;;;6.40;92.60;;;;;;4810308;29;20055;-75
2021/04/08 07:35:23;;;;;;;6.38;1.70;;;6.40;92.60;;;;;;4793794;29;20851;-76
2021/04/08 07:37:58;;;;;;;7.60;2.45;;;6.50;92.70;;;;;;4780766;29;20058;-75
2021/04/08 07:40:27;;;;;;;5.55;2.03;;;6.60;92.70;;;;;;4810343;29;20058;-75
2021/04/08 07:42:54;;;;;;;8.73;2.60;;;6.60;92.40;;;;;;4803471;29;20042;-75
2021/04/08 07:45:28;;;;;;;7.53;2.15;;;6.70;92.30;;;;;;4795813;29;20066;-75
2021/04/08 07:48:06;;;;;;;6.32;1.80;;;6.60;91.10;;;;;;4796205;29;20054;-75
2021/04/08 07:50:35;;;;;;;8.30;1.73;;;6.60;91.30;;;;;;4784938;29;20049;-75
2021/04/08 07:53:03;;;;;;;5.97;2.00;;;6.50;91.20;;;;;;4804215;29;20118;-75
2021/04/08 07:55:30;;;;;;;5.45;1.95;;;6.60;91.30;;;;;;4802649;29;20461;-75
2021/04/08 07:58:00;;;;;;;5.47;2.30;;;6.60;91.40;;;;;;4810498;29;20062;-75
2021/04/08 08:00:34;;;;;;;6.32;1.70;;;6.60;90.90;;;;;;4812904;29;20418;-75
2021/04/08 08:03:06;;;;;;;4.32;1.83;;;6.60;91.00;;;;;;4806681;29;20054;-75
2021/04/08 08:05:36;;;;;;;7.88;2.60;;;6.70;90.40;;;;;;4813479;29;20050;-75
2021/04/08 08:08:13;;;;;;;5.80;1.70;;;6.70;90.40;;;;;;4812318;29;20058;-75
2021/04/08 08:10:41;;;;;;;8.82;1.40;;;6.80;90.50;;;;;;4812427;29;20429;-75
2021/04/08 08:13:27;;;;;;;5.37;1.40;;;6.90;90.30;;;;;;4810965;29;20073;-75
2021/04/08 08:15:56;;;;;;;7.75;1.85;;;7.00;90.00;;;;;;4796896;29;20038;-75
2021/04/08 08:18:41;;;;;;;7.38;1.70;;;7.10;89.50;;;;;;4807831;29;20062;-75
2021/04/08 08:21:13;;;;;;;4.80;1.55;;;7.10;88.70;;;;;;4795326;29;20038;-75
2021/04/08 08:23:45;;;;;;;6.15;1.60;;;7.10;88.20;;;;;;4809785;29;20081;-75
2021/04/08 08:26:41;;;;;;;;;;;7.10;87.50;;;;;;4813807;29;20054;-75
2021/04/08 08:29:10;;;;;;;5.55;1.20;;;7.30;87.40;;;;;;4813244;29;20395;-75
2021/04/08 08:31:44;;;;;;;4.13;1.17;;;7.50;86.40;;;;;;4789013;29;20034;-76
2021/04/08 08:34:19;;;;;;;7.15;1.50;;;7.70;86.40;;;;;;4803091;29;20051;-77
2021/04/08 08:37:02;;;;;;;7.22;1.02;;;7.90;85.10;;;;;;4788377;29;20046;-76
2021/04/08 08:39:31;;;;;;;10.20;3.30;;;8.00;85.10;;;;;;4786728;29;20038;-77
2021/04/08 08:41:59;;;;;;;5.18;1.85;;;8.20;83.90;;;;;;4795811;29;20073;-76
2021/04/08 08:44:27;;;;;;;5.38;1.63;;;8.40;83.60;;;;;;4797264;29;20498;-76
2021/04/08 08:47:14;;;;;;;3.67;1.30;;;8.50;83.10;;;;;;4782756;29;20622;-76
2021/04/08 08:49:48;;;;;;;5.75;1.90;;;8.70;79.80;;;;;;4803503;29;20414;-76
2021/04/08 08:52:24;;;;;;;6.93;1.45;;;8.70;77.20;;;;;;4809732;29;20031;-76
2021/04/08 08:54:52;;;;;;;4.05;1.27;;;8.80;77.20;;;;;;4817090;29;20046;-79
2021/04/08 08:57:20;;;;;;;4.35;1.55;;;8.80;76.90;;;;;;4797119;29;20043;-78
2021/04/08 08:59:48;;;;;;;4.97;1.17;;;8.90;75.90;;;;;;4798178;29;20042;-78
2021/04/08 09:02:35;;;;;;;4.78;1.02;;;9.00;73.50;;;;;;4802734;29;20054;-79
2021/04/08 09:05:24;;;;;;;3.78;0.70;;;9.10;72.00;;;;;;4791474;29;20045;-78
2021/04/08 09:07:52;;;;;;;3.30;0.90;;;9.10;72.80;;;;;;4777848;29;20074;-78
2021/04/08 09:10:41;;;;;;;6.68;2.92;;;9.20;70.80;;;;;;4807161;29;20046;-76
2021/04/08 09:13:28;;;;;;;5.35;1.98;;;9.20;70.50;;;;;;4801236;29;20054;-77
2021/04/08 09:16:02;;;;;;;6.28;1.40;;;9.10;69.90;;;;;;4824530;29;20050;-78
2021/04/08 09:18:28;;;;;;;6.07;0.98;;;8.90;69.10;;;;;;4786776;29;20049;-77
2021/04/08 09:20:55;;;;;;;3.05;1.13;;;8.80;68.90;;;;;;4792723;29;20043;-77
2021/04/08 09:23:28;;;;;;;8.57;1.33;;;8.60;68.30;;;;;;4767371;29;20046;-77
2021/04/08 09:25:57;;;;;;;;;;;8.40;67.40;;;;;;4795360;29;20443;-77
2021/04/08 09:28:30;;;;;;;6.68;1.20;;;8.30;68.40;;;;;;4793139;29;19916;-77
2021/04/08 09:33:39;;;;;;;6.38;1.50;;;8.40;67.60;;;;;;4791377;29;21489;-77
2021/04/08 09:36:36;;;;;;;5.45;1.40;;;8.40;65.70;;;;;;4804536;29;20045;-77
2021/04/08 09:39:02;;;;;;;9.55;1.48;;;8.50;65.90;;;;;;4788747;29;20054;-77
2021/04/08 09:41:58;;;;;;;4.80;1.10;;;8.60;65.40;;;;;;4787635;29;20046;-77
2021/04/08 09:44:27;;;;;;;4.15;1.10;;;8.90;65.30;;;;;;4774299;29;20058;-77
2021/04/08 09:47:01;;;;;;;8.18;1.23;;;9.20;64.80;;;;;;4795599;29;20043;-77
2021/04/08 09:49:37;;;;;;;5.93;1.10;;;9.50;62.60;;;;;;4813583;29;20770;-77
2021/04/08 09:52:04;;;;;;;2.60;1.08;;;9.60;62.00;;;;;;4810427;29;20518;-77
2021/04/08 09:54:51;;;;;;;4.38;1.25;;;9.70;61.80;;;;;;4792644;29;20069;-77
2021/04/08 09:57:35;;;;;;;4.93;1.55;;;9.90;62.00;;;;;;4813869;29;20520;-77
2021/04/08 10:00:06;;;;;;;5.53;1.60;;;10.30;59.70;;;;;;4796885;29;20137;-77
2021/04/08 10:02:56;;;;;;;3.85;1.40;;;10.60;57.50;;;;;;4790585;29;20066;-78
2021/04/08 10:05:22;;;;;;;;;;;10.80;56.00;;;;;;4790737;29;20410;-77
2021/04/08 10:07:55;;;;;;;5.63;1.50;;;10.80;55.70;;;;;;4793753;29;20307;-77
2021/04/08 10:10:35;;;;;;;5.63;1.88;;;10.90;54.40;;;;;;4813466;29;20069;-77
2021/04/08 10:13:32;;;;;;;5.57;1.58;;;10.80;52.10;;;;;;4807249;29;20061;-76
2021/04/08 10:16:00;;;;;;;6.75;1.80;;;10.80;51.30;;;;;;4794557;29;20050;-76
2021/04/08 10:18:29;;;;;;;2.83;1.25;;;10.70;51.10;;;;;;4812378;29;20633;-76
2021/04/08 10:21:01;;;;;;;4.82;1.42;;;10.80;52.00;;;;;;4813450;29;20083;-76
2021/04/08 10:23:39;;;;;;;5.28;1.67;;;10.90;52.70;;;;;;4793861;29;20053;-76
2021/04/08 10:26:13;;;;;;;2.75;1.67;;;11.00;52.00;;;;;;4813468;29;20061;-75
2021/04/08 10:28:56;;;;;;;5.80;1.73;;;11.10;51.70;;;;;;4810488;29;20089;-76
2021/04/08 10:31:23;;;;;;;2.85;1.65;;;11.10;49.90;;;;;;4789656;29;20038;-76
2021/04/08 10:33:54;;;;;;;4.18;1.65;;;11.10;49.90;;;;;;4801148;29;20038;-77
2021/04/08 10:36:45;;;;;;;4.03;1.83;;;11.00;49.70;;;;;;4812444;29;20050;-75
2021/04/08 10:39:20;;;;;;;5.47;2.55;;;11.00;49.70;;;;;;4812530;29;20046;-76
2021/04/08 10:42:05;;;;;;;7.45;2.13;;;11.00;48.10;;;;;;4810846;29;20058;-75
2021/04/08 10:44:43;;;;;;;7.43;2.33;;;10.90;48.20;;;;;;4793355;29;20047;-76
2021/04/08 10:47:17;;;;;;;7.47;2.40;;;10.90;48.20;;;;;;4796686;29;20397;-75
2021/04/08 10:49:58;;;;;;;5.63;2.03;;;10.90;47.80;;;;;;4797780;29;20573;-77
2021/04/08 10:52:27;;;;;;;5.05;1.73;;;10.80;47.40;;;;;;4761895;29;20061;-77
2021/04/08 10:54:59;;;;;;;4.13;1.50;;;10.80;47.50;;;;;;4793270;29;20050;-76
2021/04/08 10:57:27;;;;;;;5.55;2.22;;;10.80;47.80;;;;;;4789319;29;20038;-77
2021/04/08 10:59:55;;;;;;;5.13;2.42;;;10.80;47.70;;;;;;4808008;29;20073;-76
2021/04/08 11:02:27;;;;;;;4.57;2.33;;;10.70;47.00;;;;;;4795574;29;20042;-76
2021/04/08 11:04:56;;;;;;;6.97;2.50;;;10.70;47.90;;;;;;4797102;29;20070;-75
2021/04/08 11:07:23;;;;;;;9.77;2.28;;;10.70;48.20;;;;;;4796715;29;20490;-77
2021/04/08 11:09:51;;;;;;;4.00;2.20;;;10.80;48.30;;;;;;4781540;29;20054;-76
2021/04/08 11:12:27;;;;;;;7.25;2.50;;;10.90;48.40;;;;;;4794761;29;20502;-78
2021/04/08 11:14:56;;;;;;;3.97;1.95;;;11.00;47.70;;;;;;4782207;29;20042;-76
2021/04/08 11:17:25;;;;;;;7.50;3.30;;;11.00;48.10;;;;;;4809706;29;20046;-75
2021/04/08 11:19:54;;;;;;;5.28;2.30;;;11.00;48.20;;;;;;4796312;29;20514;-79
2021/04/08 11:22:29;;;;;;;6.03;2.35;;;11.00;48.30;;;;;;4771738;29;20405;-75
2021/04/08 11:24:58;;;;;;;4.70;1.80;;;11.00;48.90;;;;;;4810433;29;20651;-76
2021/04/08 11:27:30;;;;;;;4.18;2.35;;;11.20;49.70;;;;;;4795605;29;20039;-75
2021/04/08 11:29:57;;;;;;;4.10;2.20;;;11.30;48.60;;;;;;4795718;29;20409;-78
2021/04/08 11:32:24;;;;;;;5.30;2.20;;;11.40;48.60;;;;;;4809263;29;20042;-77
2021/04/08 11:34:53;;;;;;;7.28;2.50;;;11.40;48.80;;;;;;4790400;29;20532;-75
2021/04/08 11:37:36;;;;;;;5.90;2.45;;;11.60;48.10;;;;;;4808856;29;20062;-75
2021/04/08 11:40:06;;;;;;;8.68;2.75;;;11.50;47.10;;;;;;4809385;29;20050;-76
2021/04/08 11:42:35;;;;;;;4.43;2.10;;;11.50;46.80;;;;;;4808560;29;20511;-75
2021/04/08 11:45:25;;;;;;;5.43;2.35;;;11.40;47.30;;;;;;4806307;29;20051;-75
2021/04/08 11:48:03;;;;;;;6.90;2.30;;;11.60;47.40;;;;;;4806572;29;20057;-76
2021/04/08 11:50:41;;;;;;;5.35;2.58;;;11.90;48.10;;;;;;4813824;29;20062;-76
2021/04/08 11:53:10;;;;;;;6.78;2.83;;;12.10;46.90;;;;;;4797032;29;20394;-77
2021/04/08 11:55:41;;;;;;;6.70;3.00;;;12.40;46.90;;;;;;4788513;29;20035;-76
2021/04/08 11:58:10;;;;;;;8.00;4.05;;;12.50;46.30;;;;;;4784176;29;20050;-76
2021/04/08 12:00:38;;;;;;;6.43;3.08;;;12.40;45.00;;;;;;4796784;29;20045;-77
2021/04/08 12:03:25;;;;;;;8.38;3.50;;;12.10;45.80;;;;;;4810847;29;20120;-76
2021/04/08 12:05:52;;;;;;;7.00;3.03;;;11.90;45.80;;;;;;4809378;29;20070;-76
2021/04/08 12:08:51;;;;;;;7.72;3.60;;;11.80;46.50;;;;;;4816506;29;20050;-77
2021/04/08 12:11:19;;;;;;;6.85;3.17;;;11.70;46.70;;;;;;4787864;29;20589;-76
2021/04/08 12:14:03;;;;;;;5.70;3.08;;;11.60;47.30;;;;;;4812449;29;20051;-75
2021/04/08 12:16:30;;;;;;;6.45;2.95;;;11.50;47.60;;;;;;4803939;29;20050;-77
2021/04/08 12:18:58;;;;;;;8.45;3.35;;;11.50;48.10;;;;;;4786561;29;20089;-76
2021/04/08 12:21:27;;;;;;;6.72;3.33;;;11.50;48.10;;;;;;4800554;29;20049;-77
2021/04/08 12:24:06;;;;;;;5.45;4.05;;;11.50;48.10;;;;;;4797585;29;20409;-76
2021/04/08 12:26:39;;;;;;;6.88;4.30;;;11.60;47.80;;;;;;4772795;29;20038;-76
2021/04/08 12:29:05;;;;;;;6.90;3.17;;;11.80;47.40;;;;;;4814854;29;20050;-76
2021/04/08 12:31:33;;;;;;;6.65;3.58;;;12.00;47.00;;;;;;4793388;29;20049;-76
2021/04/08 12:33:59;;;;;;;6.50;4.53;;;12.40;45.80;;;;;;4784740;29;20064;-76
2021/04/08 12:36:29;;;;;;;5.60;3.83;;;12.40;45.40;;;;;;4800017;29;20081;-76
2021/04/08 12:38:57;;;;;;;6.60;3.70;;;12.30;45.70;;;;;;4816150;29;20055;-77
2021/04/08 12:41:24;;;;;;;6.78;2.83;;;12.20;46.20;;;;;;4783802;29;20065;-76
2021/04/08 12:43:50;;;;;;;5.63;3.92;;;12.10;46.40;;;;;;4804787;29;20051;-76
2021/04/08 12:46:17;;;;;;;9.98;4.50;;;12.00;45.80;;;;;;4787185;29;20489;-76
2021/04/08 12:48:43;;;;;;;8.55;5.28;;;11.90;46.40;;;;;;4800086;29;20406;-76
2021/04/08 12:51:10;;;;;;;8.90;4.55;;;11.80;46.50;;;;;;4757373;29;20066;-76
2021/04/08 12:53:36;;;;;;;12.25;4.80;;;11.80;46.80;;;;;;4798598;29;20050;-76
2021/04/08 12:56:03;;;;;;;11.55;5.35;;;11.80;47.00;;;;;;4797917;29;20071;-76
2021/04/08 12:58:30;;;;;;;7.97;5.00;;;11.70;46.90;;;;;;4801030;29;20050;-76
2021/04/08 13:00:56;;;;;;;6.43;4.65;;;11.60;47.80;;;;;;4770529;29;20062;-77
2021/04/08 13:03:24;;;;;;;6.15;4.60;;;11.50;47.00;;;;;;4793019;29;20406;-77
2021/04/08 13:05:50;;;;;;;7.18;4.20;;;11.50;47.20;;;;;;4799964;29;20066;-79
2021/04/08 13:08:20;;;;;;;11.35;4.80;;;11.60;47.50;;;;;;4798130;29;20066;-77
2021/04/08 13:10:47;;;;;;;9.95;4.35;;;11.70;47.30;;;;;;4787307;29;20042;-76
2021/04/08 13:13:13;;;;;;;9.43;5.53;;;11.70;47.50;;;;;;4779863;29;20374;-76
2021/04/08 13:15:40;;;;;;;11.30;4.40;;;11.60;46.90;;;;;;4787470;29;20363;-78
2021/04/08 13:18:06;;;;;;;9.40;4.75;;;11.50;47.50;;;;;;4783734;29;20065;-78
2021/04/08 13:20:35;;;;;;;8.48;5.10;;;11.60;47.90;;;;;;4784995;29;20046;-78
2021/04/08 13:23:03;;;;;;;6.25;4.70;;;11.90;47.90;;;;;;4814205;29;20054;-78